Time;durP1;ratioP1;P1;durP2;ratioP2;P2;SDS_P1;SDS_P2;PMS_P1;PMS_P2;Temp;Humidity;BMP_temperature;BMP_pressure;BME280_temperature;BME280_humidity;BME280_pressure;Samples;Min_cycle;Max_cycle;Signal;HPM_P1;HPM_P2
2022/10/15 00:04:21;;;;;;;50.25;40.72;;;23.20;59.40;;;;;;4795608;58;20995;-26
2022/10/15 00:09:22;;;;;;;52.25;41.95;;;23.20;59.40;;;;;;4799296;54;21008;-29
2022/10/15 00:14:23;;;;;;;45.97;38.50;;;23.10;59.30;;;;;;4799244;54;21012;-26
2022/10/15 00:19:23;;;;;;;50.85;41.63;;;23.20;59.30;;;;;;4838862;54;21569;-29
2022/10/15 00:24:27;;;;;;;47.00;39.42;;;23.10;59.80;;;;;;4802466;54;20995;-29
2022/10/15 00:29:28;;;;;;;50.00;39.80;;;23.10;59.20;;;;;;4796434;58;21012;-28
2022/10/15 00:34:29;;;;;;;47.28;39.40;;;23.10;59.10;;;;;;4868684;54;21080;-29
2022/10/15 00:39:33;;;;;;;47.92;38.15;;;23.10;59.10;;;;;;4828286;54;21588;-29
2022/10/15 00:45:16;;;;;;;42.70;36.80;;;23.10;59.10;;;;;;4815624;54;21103;-34
2022/10/15 00:50:25;;;;;;;47.08;39.25;;;23.10;59.10;;;;;;4820746;54;21482;-34
2022/10/15 00:55:32;;;;;;;47.58;38.35;;;23.10;59.00;;;;;;4835698;54;21003;-34
2022/10/15 01:00:33;;;;;;;;;;;23.10;59.00;;;;;;4880539;54;20999;-29
2022/10/15 01:05:37;;;;;;;44.80;36.58;;;23.10;58.90;;;;;;4825674;54;20062;-36
2022/10/15 01:10:50;;;;;;;43.87;36.58;;;23.10;58.90;;;;;;4795501;58;21103;-27
2022/10/15 01:16:14;;;;;;;44.70;36.70;;;23.10;58.90;;;;;;4845735;54;21012;-36
2022/10/15 01:21:40;;;;;;;43.15;36.95;;;23.00;58.80;;;;;;4814936;54;21048;-33
2022/10/15 01:27:44;;;;;;;41.97;34.90;;;23.10;58.90;;;;;;4801324;54;21006;-32
2022/10/15 01:33:03;;;;;;;42.08;34.60;;;23.10;58.80;;;;;;4795771;58;20996;-27
2022/10/15 01:39:44;;;;;;;41.17;33.28;;;23.10;58.70;;;;;;4797696;54;21490;-29
2022/10/15 01:44:53;;;;;;;40.30;33.28;;;23.10;58.60;;;;;;4819600;54;21014;-32
2022/10/15 01:49:55;;;;;;;39.88;33.92;;;23.10;58.70;;;;;;4795189;55;21024;-34
2022/10/15 01:55:01;;;;;;;40.28;33.90;;;23.10;58.60;;;;;;4811795;54;20993;-25
2022/10/15 02:00:05;;;;;;;38.03;32.22;;;23.10;58.70;;;;;;4821203;54;21015;-29
2022/10/15 02:05:18;;;;;;;37.42;32.40;;;23.10;58.50;;;;;;4807449;54;21580;-31
2022/10/15 02:10:59;;;;;;;38.28;33.50;;;23.10;58.50;;;;;;4820215;54;20992;-29
2022/10/15 02:17:09;;;;;;;40.38;32.47;;;23.10;58.60;;;;;;4806974;54;21043;-30
2022/10/15 02:22:22;;;;;;;39.47;31.60;;;23.10;58.40;;;;;;4877081;54;20980;-28
2022/10/15 02:27:27;;;;;;;36.65;30.45;;;23.10;58.40;;;;;;4796944;54;20976;-38
2022/10/15 02:32:30;;;;;;;37.72;31.52;;;23.10;58.40;;;;;;4809796;54;20992;-33
2022/10/15 02:37:33;;;;;;;34.83;30.00;;;23.10;58.30;;;;;;4837923;54;21027;-37
2022/10/15 02:42:37;;;;;;;34.90;28.83;;;23.10;58.40;;;;;;4799037;54;21118;-29
2022/10/15 02:47:38;;;;;;;36.92;30.25;;;23.10;58.30;;;;;;4841347;54;21011;-34
2022/10/15 02:52:38;;;;;;;34.67;29.67;;;23.10;58.30;;;;;;4840860;54;21036;-30
2022/10/15 02:57:39;;;;;;;32.83;28.42;;;23.00;58.30;;;;;;4837451;54;21470;-29
2022/10/15 03:02:40;;;;;;;33.40;28.30;;;23.00;58.20;;;;;;4850836;54;21579;-31
2022/10/15 03:07:41;;;;;;;34.40;28.77;;;23.00;58.20;;;;;;4818870;54;20996;-26
2022/10/15 03:12:42;;;;;;;32.08;26.90;;;23.00;58.10;;;;;;4807847;54;21056;-30
2022/10/15 03:17:42;;;;;;;33.00;27.35;;;23.00;58.10;;;;;;4818108;54;20999;-26
2022/10/15 03:22:43;;;;;;;31.08;26.40;;;23.00;58.50;;;;;;4869035;54;21557;-28
2022/10/15 03:27:44;;;;;;;31.95;27.17;;;23.00;58.10;;;;;;4795083;58;21032;-26
2022/10/15 03:32:48;;;;;;;30.70;26.20;;;23.00;58.00;;;;;;4838058;54;20988;-27
2022/10/15 03:37:48;;;;;;;29.52;25.50;;;23.00;58.00;;;;;;4815898;54;21080;-33
2022/10/15 03:42:50;;;;;;;30.12;25.77;;;23.00;58.00;;;;;;4835832;54;21004;-30
2022/10/15 03:47:52;;;;;;;30.62;25.80;;;23.00;57.90;;;;;;4848844;54;21067;-32
2022/10/15 03:52:53;;;;;;;30.08;24.42;;;23.00;57.90;;;;;;4797246;54;21466;-39
2022/10/15 03:57:53;;;;;;;29.80;24.67;;;23.00;58.00;;;;;;4851516;54;21063;-28
2022/10/15 04:02:54;;;;;;;28.17;24.15;;;23.00;57.60;;;;;;4814208;54;21004;-37
2022/10/15 04:07:56;;;;;;;30.23;24.83;;;23.00;57.60;;;;;;4841990;54;21047;-35
2022/10/15 04:12:57;;;;;;;28.48;23.83;;;23.00;57.70;;;;;;4795875;58;21000;-28
2022/10/15 04:17:57;;;;;;;28.77;23.95;;;23.00;57.60;;;;;;4804490;54;21019;-27
2022/10/15 04:22:58;;;;;;;26.05;23.23;;;23.00;57.60;;;;;;4795677;58;21771;-33
2022/10/15 04:28:00;;;;;;;25.45;22.58;;;23.00;57.60;;;;;;4831476;54;21514;-26
2022/10/15 04:33:01;;;;;;;27.65;23.23;;;23.00;57.50;;;;;;4796549;54;21095;-36
2022/10/15 04:38:02;;;;;;;26.20;22.08;;;23.00;57.40;;;;;;4816296;54;21139;-34
2022/10/15 04:43:02;;;;;;;27.92;24.55;;;23.00;57.50;;;;;;4807048;54;21007;-28
2022/10/15 04:48:04;;;;;;;27.15;22.35;;;23.00;57.40;;;;;;4818478;54;21039;-33
2022/10/15 04:53:05;;;;;;;25.88;22.55;;;23.00;57.40;;;;;;4818032;54;21546;-34
2022/10/15 04:58:05;;;;;;;26.17;22.25;;;23.00;57.30;;;;;;4805464;54;20996;-26
2022/10/15 05:03:06;;;;;;;25.05;21.23;;;23.00;57.30;;;;;;4799811;54;20999;-27
2022/10/15 05:08:07;;;;;;;25.33;22.17;;;23.20;57.60;;;;;;4816552;54;21135;-28
2022/10/15 05:13:11;;;;;;;26.55;21.52;;;23.00;57.30;;;;;;4809392;54;21015;-29
2022/10/15 05:18:12;;;;;;;25.88;22.27;;;23.00;57.20;;;;;;4795762;58;21044;-36
2022/10/15 05:23:13;;;;;;;26.45;21.73;;;22.90;57.20;;;;;;4833092;54;20995;-35
2022/10/15 05:28:14;;;;;;;23.80;20.77;;;23.00;57.40;;;;;;4868317;54;21059;-35
2022/10/15 05:33:15;;;;;;;23.58;20.98;;;23.00;57.20;;;;;;4810429;54;21122;-34
2022/10/15 05:38:15;;;;;;;24.50;20.35;;;22.90;57.00;;;;;;4814898;54;21110;-32
2022/10/15 05:43:16;;;;;;;21.83;18.83;;;23.00;57.20;;;;;;4804312;54;21545;-34
2022/10/15 05:48:17;;;;;;;25.90;20.98;;;23.00;57.30;;;;;;4808563;54;22065;-29
2022/10/15 05:53:18;;;;;;;24.10;20.42;;;22.90;57.10;;;;;;4817771;54;21481;-25
2022/10/15 05:58:19;;;;;;;26.60;21.58;;;23.00;57.30;;;;;;4794844;58;21071;-31
2022/10/15 06:03:20;;;;;;;24.50;20.10;;;22.90;57.00;;;;;;4872436;54;21031;-26
2022/10/15 06:08:21;;;;;;;22.40;19.95;;;23.00;57.00;;;;;;4833485;54;21481;-28
2022/10/15 06:13:22;;;;;;;23.62;20.40;;;22.90;56.90;;;;;;4795410;58;21091;-34
2022/10/15 06:18:23;;;;;;;25.88;20.50;;;22.90;56.90;;;;;;4795203;58;21008;-27
2022/10/15 06:23:24;;;;;;;22.90;19.35;;;23.00;56.80;;;;;;4829907;54;21024;-26
2022/10/15 06:28:25;;;;;;;22.17;18.73;;;23.00;56.70;;;;;;4795001;58;21000;-31
2022/10/15 06:33:26;;;;;;;24.15;19.42;;;22.90;56.80;;;;;;4803142;54;21044;-28
2022/10/15 06:38:27;;;;;;;22.73;19.02;;;22.90;56.80;;;;;;4814367;54;21000;-30
2022/10/15 06:43:28;;;;;;;24.12;19.30;;;22.90;56.80;;;;;;4820483;54;21142;-28
2022/10/15 06:48:31;;;;;;;21.48;18.95;;;22.90;56.70;;;;;;4822338;54;21537;-32
2022/10/15 06:53:32;;;;;;;25.77;19.48;;;22.90;56.50;;;;;;4805114;54;21008;-26
2022/10/15 06:58:33;;;;;;;22.62;19.55;;;22.90;56.40;;;;;;4823056;54;21032;-25
2022/10/15 07:03:35;;;;;;;24.27;19.48;;;22.90;56.60;;;;;;4819897;54;21513;-27
2022/10/15 07:08:36;;;;;;;24.02;20.05;;;22.90;56.50;;;;;;4820777;54;21004;-32
2022/10/15 07:13:37;;;;;;;24.50;20.30;;;22.90;56.40;;;;;;4801551;54;21012;-26
2022/10/15 07:18:38;;;;;;;22.33;18.83;;;22.90;56.40;;;;;;4796962;54;21145;-29
2022/10/15 07:23:39;;;;;;;23.35;19.77;;;22.90;56.50;;;;;;4816875;54;21003;-30
2022/10/15 07:28:40;;;;;;;21.25;18.98;;;22.90;56.40;;;;;;4826226;54;21000;-26
2022/10/15 07:33:44;;;;;;;27.23;20.60;;;22.90;56.40;;;;;;4844253;54;21044;-29
2022/10/15 07:38:45;;;;;;;23.55;19.77;;;22.90;56.50;;;;;;4797206;54;21111;-32
2022/10/15 07:43:46;;;;;;;24.95;20.60;;;22.90;56.60;;;;;;4799921;54;21027;-31
2022/10/15 07:48:46;;;;;;;26.45;20.10;;;22.90;56.50;;;;;;4809729;54;21031;-36
2022/10/15 07:53:47;;;;;;;26.55;20.52;;;22.90;56.60;;;;;;4795326;58;21130;-27
2022/10/15 07:58:50;;;;;;;25.88;21.90;;;22.90;56.60;;;;;;4798222;54;21790;-25
2022/10/15 08:03:51;;;;;;;25.50;21.15;;;22.90;56.60;;;;;;4837865;54;21486;-28
2022/10/15 08:08:52;;;;;;;28.27;21.70;;;22.90;56.70;;;;;;4829896;54;21015;-24
2022/10/15 08:13:53;;;;;;;26.70;20.85;;;22.90;56.60;;;;;;4817908;54;21139;-33
2022/10/15 08:18:54;;;;;;;27.15;21.87;;;22.90;56.70;;;;;;4812731;54;21169;-32
2022/10/15 08:23:55;;;;;;;26.90;23.00;;;22.90;56.70;;;;;;4810949;54;21012;-29
2022/10/15 08:28:56;;;;;;;28.42;21.48;;;22.90;56.70;;;;;;4848944;54;21012;-34
2022/10/15 08:34:01;;;;;;;27.58;22.62;;;22.90;56.80;;;;;;4897016;54;21059;-33
2022/10/15 08:39:02;;;;;;;27.33;22.73;;;22.90;56.80;;;;;;4823647;54;21008;-29
2022/10/15 08:44:04;;;;;;;30.77;24.37;;;22.90;56.80;;;;;;4806286;54;21059;-29
2022/10/15 08:49:13;;;;;;;29.10;23.70;;;22.90;56.80;;;;;;4836561;54;20992;-32
2022/10/15 08:54:17;;;;;;;28.50;23.80;;;22.90;56.90;;;;;;4809620;54;21012;-29
2022/10/15 08:59:42;;;;;;;31.12;24.98;;;23.00;56.90;;;;;;4800865;54;21111;-26
2022/10/15 09:07:38;;;;;;;29.40;23.98;;;22.90;56.90;;;;;;4794824;55;21068;-25
2022/10/15 09:14:36;;;;;;;29.73;23.95;;;23.00;56.90;;;;;;4795402;55;21079;-33
2022/10/15 09:19:37;;;;;;;32.35;25.58;;;22.90;56.90;;;;;;4814277;54;21020;-30
2022/10/15 09:24:38;;;;;;;32.53;26.35;;;23.00;57.00;;;;;;4819378;54;21031;-27
2022/10/15 09:29:46;;;;;;;29.37;25.42;;;23.00;57.00;;;;;;4795652;58;21008;-28
2022/10/15 09:43:06;;;;;;;30.40;25.20;;;23.00;57.00;;;;;;4795120;58;21036;-26
2022/10/15 09:48:19;;;;;;;31.80;25.95;;;23.00;57.00;;;;;;4817991;54;21019;-29
2022/10/15 09:53:38;;;;;;;30.42;25.42;;;23.00;57.10;;;;;;4817280;54;21035;-30
2022/10/15 09:58:51;;;;;;;31.42;26.00;;;23.00;57.00;;;;;;4802884;54;21064;-29
2022/10/15 10:04:08;;;;;;;31.73;25.33;;;23.00;57.10;;;;;;4801098;54;21005;-29
2022/10/15 10:09:16;;;;;;;32.60;26.35;;;23.00;57.10;;;;;;4802255;54;21079;-31
2022/10/15 10:14:48;;;;;;;35.33;26.92;;;23.00;57.10;;;;;;4794685;58;21028;-29
2022/10/15 10:20:18;;;;;;;34.55;26.85;;;23.00;57.20;;;;;;4841020;54;21063;-27
2022/10/15 10:25:43;;;;;;;34.97;27.10;;;23.00;57.20;;;;;;4795457;54;20984;-35
2022/10/15 10:31:04;;;;;;;35.30;27.75;;;23.00;57.20;;;;;;4798822;54;21178;-35
2022/10/15 10:36:07;;;;;;;33.03;27.55;;;23.00;57.10;;;;;;4794011;58;21585;-33
2022/10/15 10:41:10;;;;;;;31.40;26.33;;;23.00;57.20;;;;;;4838477;54;21099;-28
2022/10/15 10:46:19;;;;;;;34.42;27.33;;;23.00;57.10;;;;;;4826196;54;21060;-26
2022/10/15 10:51:27;;;;;;;31.40;26.45;;;23.00;57.10;;;;;;4804550;54;21107;-28
2022/10/15 10:56:39;;;;;;;32.45;26.65;;;23.00;57.20;;;;;;4795248;58;21039;-32
2022/10/15 11:01:40;;;;;;;33.58;27.13;;;23.10;57.20;;;;;;4811574;54;21474;-29
2022/10/15 11:09:51;;;;;;;33.05;27.48;;;23.10;57.20;;;;;;4826677;54;21008;-26
2022/10/15 11:15:22;;;;;;;31.87;26.62;;;23.10;57.20;;;;;;4847506;54;21533;-32
2022/10/15 11:22:12;;;;;;;32.92;26.65;;;23.10;57.20;;;;;;4795667;54;21020;-30
2022/10/15 11:30:51;;;;;;;32.00;26.83;;;23.10;57.20;;;;;;4795527;54;21849;-32
2022/10/15 11:37:40;;;;;;;30.60;25.15;;;23.10;57.10;;;;;;4814860;54;21558;-27
2022/10/15 11:47:34;;;;;;;30.92;24.87;;;23.10;57.20;;;;;;4811115;54;21011;-29
2022/10/15 11:52:59;;;;;;;31.33;26.33;;;23.10;57.30;;;;;;4811308;54;21502;-26
2022/10/15 11:58:06;;;;;;;32.63;26.73;;;23.10;57.30;;;;;;4807744;54;20992;-29
2022/10/15 12:03:21;;;;;;;34.35;25.98;;;23.10;57.30;;;;;;4805948;54;20992;-28
2022/10/15 12:08:29;;;;;;;31.17;26.42;;;23.10;57.30;;;;;;4823816;54;21011;-29
2022/10/15 12:13:53;;;;;;;32.72;27.00;;;23.10;57.30;;;;;;4795498;58;21012;-27
2022/10/15 12:19:21;;;;;;;30.00;25.70;;;23.10;57.30;;;;;;4804213;54;21783;-28
2022/10/15 12:28:27;;;;;;;32.78;26.17;;;23.10;57.40;;;;;;4803177;54;21015;-30
2022/10/15 12:33:44;;;;;;;28.25;24.15;;;23.10;57.30;;;;;;4818662;54;21087;-29
2022/10/15 12:39:07;;;;;;;31.45;25.33;;;23.10;57.40;;;;;;4828623;54;21015;-27
2022/10/15 12:44:27;;;;;;;30.98;25.85;;;23.10;57.40;;;;;;4795429;58;21071;-29
2022/10/15 12:49:51;;;;;;;31.10;25.80;;;23.10;57.40;;;;;;4795481;58;21019;-32
2022/10/15 12:54:52;;;;;;;31.77;25.88;;;23.10;57.40;;;;;;4804235;54;21008;-31
2022/10/15 12:59:55;;;;;;;28.45;24.23;;;23.10;57.30;;;;;;4794819;56;21536;-26
2022/10/15 13:04:57;;;;;;;30.88;26.02;;;23.20;57.40;;;;;;4815777;54;21521;-28
2022/10/15 13:09:58;;;;;;;31.92;25.88;;;23.10;57.30;;;;;;4812865;54;21565;-27
2022/10/15 13:15:04;;;;;;;30.25;25.27;;;23.10;57.30;;;;;;4815499;54;21621;-29
2022/10/15 13:20:22;;;;;;;29.05;25.92;;;23.20;57.40;;;;;;4825351;54;21611;-29
2022/10/15 13:25:23;;;;;;;29.50;24.83;;;23.10;57.30;;;;;;4830117;54;21103;-32
2022/10/15 13:30:24;;;;;;;31.58;25.85;;;23.10;57.30;;;;;;4799090;54;21012;-33
2022/10/15 13:35:31;;;;;;;29.58;24.92;;;23.10;57.30;;;;;;4830474;54;21031;-26
2022/10/15 13:40:31;;;;;;;;;;;23.10;57.40;;;;;;4842434;54;20992;-30
2022/10/15 13:45:33;;;;;;;30.98;26.05;;;23.10;57.30;;;;;;4822321;54;20118;-27
2022/10/15 13:50:35;;;;;;;31.45;25.42;;;23.10;57.20;;;;;;4795531;58;21131;-32
2022/10/15 13:55:38;;;;;;;31.60;25.65;;;23.10;57.30;;;;;;4837930;54;21016;-36
2022/10/15 14:00:39;;;;;;;31.20;25.70;;;23.10;57.30;;;;;;4819609;54;21113;-35
2022/10/15 14:05:42;;;;;;;29.75;25.10;;;23.10;57.30;;;;;;4809198;54;21027;-32
2022/10/15 14:10:42;;;;;;;29.67;24.95;;;23.10;57.30;;;;;;4795240;58;21004;-32
2022/10/15 14:16:00;;;;;;;31.02;24.20;;;23.10;57.20;;;;;;4808618;54;21016;-32
2022/10/15 14:21:02;;;;;;;26.90;23.52;;;23.10;57.30;;;;;;4796215;54;21008;-33
2022/10/15 14:26:03;;;;;;;29.83;24.15;;;23.10;57.20;;;;;;4803084;54;21011;-31
2022/10/15 14:31:05;;;;;;;30.90;24.60;;;23.10;57.30;;;;;;4806263;54;21560;-29
2022/10/15 14:36:24;;;;;;;30.30;25.50;;;23.10;57.20;;;;;;4832304;54;21091;-32
2022/10/15 14:41:31;;;;;;;32.58;24.90;;;23.10;57.20;;;;;;4826832;54;21020;-30
2022/10/15 14:46:42;;;;;;;28.60;23.53;;;23.20;57.20;;;;;;4802436;54;20995;-29
2022/10/15 14:51:43;;;;;;;29.00;24.40;;;23.10;57.20;;;;;;4795922;58;21071;-33
2022/10/15 14:56:44;;;;;;;27.30;24.08;;;23.10;57.20;;;;;;4802762;54;21095;-34
2022/10/15 15:01:55;;;;;;;28.55;23.48;;;23.10;57.20;;;;;;4827944;54;21100;-31
2022/10/15 15:06:56;;;;;;;30.80;23.30;;;23.10;57.20;;;;;;4795803;58;21079;-33
2022/10/15 15:11:57;;;;;;;29.70;24.25;;;23.10;57.20;;;;;;4806605;54;21043;-35
2022/10/15 15:16:58;;;;;;;27.92;23.33;;;23.10;57.20;;;;;;4798263;54;21056;-29
2022/10/15 15:21:59;;;;;;;29.33;23.52;;;23.10;57.80;;;;;;4795689;58;21015;-35
2022/10/15 15:27:00;;;;;;;27.92;22.80;;;23.10;57.20;;;;;;4794754;58;21048;-28
2022/10/15 15:32:00;;;;;;;29.17;23.42;;;23.10;57.20;;;;;;4795571;58;21927;-30
2022/10/15 15:37:01;;;;;;;28.00;22.62;;;23.10;57.20;;;;;;4810910;54;22182;-34
2022/10/15 15:42:02;;;;;;;27.48;22.90;;;23.10;57.20;;;;;;4815894;54;21008;-28
2022/10/15 15:47:03;;;;;;;27.50;22.60;;;23.10;57.20;;;;;;4800927;54;21012;-28
2022/10/15 15:52:15;;;;;;;26.60;22.33;;;23.10;57.20;;;;;;4816409;54;21048;-29
2022/10/15 15:57:16;;;;;;;30.45;23.98;;;23.10;57.30;;;;;;4855296;54;21498;-30
2022/10/15 16:02:18;;;;;;;25.10;22.02;;;23.10;57.20;;;;;;4808903;54;21064;-32
2022/10/15 16:07:20;;;;;;;30.73;23.10;;;23.10;57.20;;;;;;4795963;58;21510;-26
2022/10/15 16:12:24;;;;;;;28.00;23.70;;;23.10;57.20;;;;;;4809396;54;21008;-31
2022/10/15 16:17:25;;;;;;;28.27;23.02;;;23.10;57.30;;;;;;4828210;54;21012;-26
2022/10/15 16:22:26;;;;;;;31.67;23.20;;;23.10;57.20;;;;;;4862258;54;21063;-29
2022/10/15 16:27:27;;;;;;;29.30;23.90;;;23.10;57.20;;;;;;4796235;54;20999;-28
2022/10/15 16:32:27;;;;;;;26.67;22.52;;;23.10;57.30;;;;;;4801092;54;21612;-27
2022/10/15 16:37:28;;;;;;;27.55;23.05;;;23.10;57.20;;;;;;4818771;54;21016;-27
2022/10/15 16:42:29;;;;;;;27.83;22.92;;;23.10;57.30;;;;;;4806148;54;21039;-31
2022/10/15 16:47:30;;;;;;;30.48;23.70;;;23.10;57.30;;;;;;4795764;58;20971;-27
2022/10/15 16:52:33;;;;;;;28.58;22.95;;;23.10;57.30;;;;;;4817182;54;21572;-28
2022/10/15 16:57:33;;;;;;;26.98;22.90;;;23.10;57.20;;;;;;4842625;54;21075;-28
2022/10/15 17:02:36;;;;;;;26.58;22.50;;;23.20;57.30;;;;;;4826702;54;21003;-26
2022/10/15 17:07:37;;;;;;;27.33;22.58;;;23.10;57.30;;;;;;4795751;58;21072;-27
2022/10/15 17:12:37;;;;;;;33.40;24.15;;;23.10;57.30;;;;;;4807760;54;21326;-27
2022/10/15 17:17:38;;;;;;;29.30;23.62;;;23.10;57.30;;;;;;4795080;58;21561;-30
2022/10/15 17:22:39;;;;;;;28.40;23.85;;;23.10;57.30;;;;;;4848918;54;21000;-26
2022/10/15 17:27:40;;;;;;;30.42;24.60;;;23.10;57.40;;;;;;4796041;58;20984;-28
2022/10/15 17:32:40;;;;;;;27.75;23.83;;;23.10;57.40;;;;;;4864100;54;21096;-28
2022/10/15 17:37:42;;;;;;;30.33;24.37;;;23.10;57.40;;;;;;4820030;54;21011;-29
2022/10/15 17:42:43;;;;;;;30.20;24.55;;;23.10;57.50;;;;;;4802933;54;21064;-27
2022/10/15 17:47:43;;;;;;;31.10;24.90;;;23.10;57.90;;;;;;4801840;54;21652;-29
2022/10/15 17:52:48;;;;;;;30.15;24.60;;;23.10;57.60;;;;;;4818973;54;21059;-27
2022/10/15 17:57:48;;;;;;;28.65;24.02;;;23.10;57.50;;;;;;4827703;54;21621;-32
2022/10/15 18:02:50;;;;;;;31.17;25.05;;;23.10;57.60;;;;;;4795619;55;20996;-31
2022/10/15 18:07:50;;;;;;;32.17;26.23;;;23.10;57.60;;;;;;4843974;54;21481;-28
2022/10/15 18:12:51;;;;;;;33.42;27.37;;;23.10;57.60;;;;;;4833028;54;21004;-36
2022/10/15 18:17:52;;;;;;;32.63;26.40;;;23.10;57.70;;;;;;4797505;54;21068;-35
2022/10/15 18:22:53;;;;;;;32.05;26.20;;;23.30;57.80;;;;;;4809573;54;21000;-29
2022/10/15 18:27:54;;;;;;;33.28;27.33;;;23.10;57.70;;;;;;4816469;54;21051;-30
2022/10/15 18:32:54;;;;;;;33.75;27.05;;;23.10;57.70;;;;;;4799210;54;21028;-31
2022/10/15 18:37:55;;;;;;;34.13;27.85;;;23.10;57.70;;;;;;4828783;54;21023;-35
2022/10/15 18:42:56;;;;;;;36.60;28.75;;;23.10;57.70;;;;;;4883209;54;21071;-28
2022/10/15 18:47:57;;;;;;;37.90;29.20;;;23.10;57.70;;;;;;4800968;54;21064;-29
2022/10/15 18:52:57;;;;;;;35.35;28.38;;;23.10;57.80;;;;;;4821410;54;21107;-29
2022/10/15 18:58:00;;;;;;;36.60;28.83;;;23.10;57.70;;;;;;4802220;54;21013;-31
2022/10/15 19:03:01;;;;;;;36.58;28.80;;;23.00;57.70;;;;;;4798876;54;20995;-32
2022/10/15 19:08:05;;;;;;;37.50;29.58;;;23.10;57.80;;;;;;4794891;58;20999;-30
2022/10/15 19:13:05;;;;;;;38.83;31.05;;;23.00;57.80;;;;;;4814201;54;21492;-31
2022/10/15 19:18:09;;;;;;;35.35;28.80;;;23.10;58.00;;;;;;4808708;54;21028;-35
2022/10/15 19:23:10;;;;;;;38.83;31.23;;;23.00;57.70;;;;;;4804502;54;21474;-29
2022/10/15 19:28:11;;;;;;;41.10;31.40;;;23.10;57.90;;;;;;4798311;54;21055;-35
2022/10/15 19:33:12;;;;;;;40.42;30.88;;;23.10;57.80;;;;;;4810340;54;21036;-34
2022/10/15 19:38:13;;;;;;;38.05;31.48;;;23.10;57.80;;;;;;4809123;54;21537;-34
2022/10/15 19:43:14;;;;;;;37.35;29.33;;;23.00;57.70;;;;;;4798888;54;21494;-27
2022/10/15 19:48:18;;;;;;;36.95;30.30;;;23.00;57.20;;;;;;4812049;54;21530;-34
2022/10/15 19:53:18;;;;;;;38.53;31.23;;;23.00;57.80;;;;;;4794952;58;21038;-29
2022/10/15 19:58:19;;;;;;;40.38;31.23;;;23.10;57.80;;;;;;4807816;54;20996;-35
2022/10/15 20:03:21;;;;;;;38.30;30.33;;;23.00;57.70;;;;;;4826596;54;21493;-28
2022/10/15 20:08:22;;;;;;;41.72;31.83;;;23.00;57.80;;;;;;4796508;54;21052;-33
2022/10/15 20:13:23;;;;;;;39.90;31.92;;;23.00;57.80;;;;;;4847661;54;21641;-32
2022/10/15 20:18:24;;;;;;;39.78;31.60;;;23.00;57.80;;;;;;4807109;54;20992;-32
2022/10/15 20:23:25;;;;;;;43.67;32.15;;;23.00;57.70;;;;;;4831217;54;21008;-27
2022/10/15 20:28:26;;;;;;;41.25;32.22;;;23.00;57.60;;;;;;4856524;54;21020;-31
2022/10/15 20:33:26;;;;;;;39.95;32.13;;;23.00;57.80;;;;;;4816995;54;21040;-34
2022/10/15 20:38:27;;;;;;;42.40;33.13;;;23.00;57.70;;;;;;4794691;58;21031;-35
2022/10/15 20:43:28;;;;;;;42.28;33.45;;;23.00;57.70;;;;;;4823448;54;21008;-32
2022/10/15 20:48:31;;;;;;;42.20;33.10;;;23.00;57.70;;;;;;4811838;54;21490;-26
2022/10/15 20:53:32;;;;;;;41.42;32.78;;;23.00;57.70;;;;;;4808326;54;21012;-34
2022/10/15 20:58:33;;;;;;;43.85;32.65;;;23.00;57.70;;;;;;4800557;54;21035;-31
2022/10/15 21:03:34;;;;;;;42.83;34.45;;;23.30;58.30;;;;;;4858451;54;21477;-37
2022/10/15 21:08:35;;;;;;;41.10;32.90;;;23.00;57.70;;;;;;4808607;54;21008;-27
2022/10/15 21:13:36;;;;;;;42.62;33.83;;;23.10;57.70;;;;;;4795760;58;21040;-31
2022/10/15 21:18:37;;;;;;;43.05;32.53;;;23.00;57.60;;;;;;4795524;58;21495;-33
2022/10/15 21:23:39;;;;;;;42.03;34.08;;;23.00;57.60;;;;;;4804933;54;21103;-32
2022/10/15 21:28:41;;;;;;;41.85;32.75;;;23.00;57.60;;;;;;4807111;54;21059;-29
2022/10/15 21:33:42;;;;;;;43.42;34.08;;;23.00;57.60;;;;;;4807187;54;21016;-29
2022/10/15 21:38:42;;;;;;;41.63;32.60;;;23.00;57.60;;;;;;4827328;54;21140;-27
2022/10/15 21:43:43;;;;;;;44.03;34.40;;;23.00;57.60;;;;;;4807216;54;21142;-30
2022/10/15 21:48:44;;;;;;;44.17;33.60;;;23.00;57.60;;;;;;4811988;54;21528;-34
2022/10/15 21:53:48;;;;;;;44.03;33.53;;;23.00;57.60;;;;;;4795352;58;21023;-29
2022/10/15 21:58:50;;;;;;;42.72;32.78;;;23.00;57.50;;;;;;4829191;54;21484;-36
2022/10/15 22:03:56;;;;;;;41.67;32.63;;;23.00;57.60;;;;;;4837199;54;21110;-33
2022/10/15 22:08:57;;;;;;;41.30;31.33;;;23.10;57.70;;;;;;4804969;54;21067;-31
2022/10/15 22:14:02;;;;;;;43.10;32.00;;;23.00;57.60;;;;;;4803911;54;21154;-32
2022/10/15 22:19:04;;;;;;;42.03;33.40;;;23.00;57.60;;;;;;4819847;54;22301;-31
2022/10/15 22:24:12;;;;;;;38.92;31.33;;;23.00;57.60;;;;;;4855118;54;21126;-32
2022/10/15 22:29:21;;;;;;;40.55;31.70;;;23.00;57.60;;;;;;4795541;55;21533;-35
2022/10/15 22:34:22;;;;;;;39.90;31.83;;;23.00;57.60;;;;;;4816044;54;21043;-33
2022/10/15 22:39:23;;;;;;;40.20;30.62;;;23.00;57.60;;;;;;4804149;54;21011;-27
2022/10/15 22:44:24;;;;;;;39.15;30.65;;;23.00;57.70;;;;;;4823760;54;21012;-36
2022/10/15 22:49:25;;;;;;;39.58;32.08;;;23.00;57.60;;;;;;4795846;55;20995;-32
2022/10/15 22:54:26;;;;;;;40.03;30.85;;;23.00;57.60;;;;;;4822395;54;21552;-35
2022/10/15 22:59:27;;;;;;;36.92;29.27;;;23.00;57.60;;;;;;4836320;54;21027;-34
2022/10/15 23:04:28;;;;;;;39.17;31.12;;;23.00;57.60;;;;;;4795915;58;21008;-33
2022/10/15 23:09:28;;;;;;;38.20;30.12;;;23.00;57.60;;;;;;4795015;58;21063;-27
2022/10/15 23:14:29;;;;;;;39.13;30.17;;;23.00;57.60;;;;;;4795109;58;21127;-28
2022/10/15 23:19:31;;;;;;;39.20;30.62;;;23.00;57.60;;;;;;4824543;54;21008;-29
2022/10/15 23:24:31;;;;;;;35.55;29.05;;;23.00;57.60;;;;;;4843370;54;21565;-27
2022/10/15 23:29:32;;;;;;;38.47;29.58;;;23.00;57.60;;;;;;4827028;54;21051;-29
2022/10/15 23:34:33;;;;;;;35.97;29.17;;;23.00;57.60;;;;;;4816882;54;21131;-28
2022/10/15 23:39:34;;;;;;;34.42;27.73;;;23.00;57.60;;;;;;4832735;54;21071;-29
2022/10/15 23:44:35;;;;;;;37.17;29.33;;;23.00;58.30;;;;;;4840828;54;21011;-29
2022/10/15 23:49:38;;;;;;;36.03;29.33;;;23.00;57.60;;;;;;4801784;54;21016;-29
2022/10/15 23:54:39;;;;;;;37.20;28.35;;;23.00;57.60;;;;;;4811995;54;21015;-29
2022/10/15 23:59:40;;;;;;;33.78;27.13;;;23.00;57.60;;;;;;4795349;58;21563;-30
